createdAt,value
2022-09-04T00:05:04.291Z,84.78
2022-09-04T00:10:31.392Z,84.64
2022-09-04T00:15:53.675Z,84.57
2022-09-04T00:21:09.970Z,84.85
2022-09-04T00:26:43.292Z,84.68
2022-09-04T00:31:59.502Z,84.95
2022-09-04T00:37:07.322Z,85.14
2022-09-04T00:42:32.450Z,84.98
2022-09-04T00:47:39.654Z,84.75
2022-09-04T00:52:48.598Z,84.58
2022-09-04T00:58:33.590Z,84.76
2022-09-04T01:04:08.034Z,84.50
2022-09-04T01:09:32.544Z,84.36
2022-09-04T01:15:03.133Z,84.28
2022-09-04T01:20:24.130Z,84.01
2022-09-04T01:25:55.395Z,83.93
2022-09-04T01:31:36.866Z,83.95
2022-09-04T01:36:58.448Z,84.02
2022-09-04T01:42:14.968Z,83.48
2022-09-04T01:47:47.365Z,83.66
2022-09-04T01:53:05.525Z,83.64
2022-09-04T01:58:16.622Z,84.03
2022-09-04T02:03:39.584Z,84.07
2022-09-04T02:09:04.037Z,84.69
2022-09-04T02:14:19.503Z,85.19
2022-09-04T02:19:38.001Z,85.46
2022-09-04T02:25:19.076Z,85.66
2022-09-04T02:30:22.448Z,85.61
2022-09-04T02:35:31.125Z,85.67
2022-09-04T02:41:00.965Z,85.49
2022-09-04T02:46:47.049Z,85.47
2022-09-04T02:52:02.377Z,85.87
2022-09-04T02:57:50.645Z,85.79
2022-09-04T03:03:05.981Z,85.79
2022-09-04T03:08:58.515Z,85.56
2022-09-04T03:14:16.063Z,85.44
2022-09-04T03:19:28.385Z,85.67
2022-09-04T03:24:39.885Z,86.10
2022-09-04T03:29:55.797Z,86.43
2022-09-04T03:35:20.712Z,86.69
2022-09-04T03:40:28.838Z,86.92
2022-09-04T03:45:54.377Z,86.49
2022-09-04T03:50:58.813Z,86.38
2022-09-04T03:56:20.559Z,86.48
2022-09-04T04:01:45.071Z,87.15
2022-09-04T04:07:08.662Z,87.31
2022-09-04T04:12:49.843Z,87.12
2022-09-04T04:18:31.677Z,86.50
2022-09-04T04:23:48.712Z,85.84
2022-09-04T04:28:59.993Z,84.54
2022-09-04T04:34:11.725Z,84.03
2022-09-04T04:39:17.393Z,83.63
2022-09-04T04:44:51.019Z,81.83
2022-09-04T04:50:17.067Z,81.21
2022-09-04T04:55:59.296Z,80.91
2022-09-04T05:01:25.604Z,81.19
2022-09-04T05:06:38.920Z,81.21
2022-09-04T05:11:56.856Z,72.95
2022-09-04T05:17:09.938Z,65.23
2022-09-04T05:22:35.630Z,58.44
2022-09-04T05:27:58.716Z,53.26
2022-09-04T05:33:06.629Z,49.66
2022-09-04T05:38:32.776Z,48.18
2022-09-04T05:43:38.757Z,46.66
2022-09-04T05:48:53.124Z,49.19
2022-09-04T05:54:14.669Z,50.26
2022-09-04T05:59:46.962Z,48.67
2022-09-04T06:04:50.888Z,47.45
2022-09-04T06:10:15.603Z,48.78
2022-09-04T06:15:24.550Z,48.39
2022-09-04T06:20:52.342Z,47.47
2022-09-04T06:26:07.631Z,44.54
2022-09-04T06:31:13.597Z,43.42
2022-09-04T06:36:42.458Z,41.72
2022-09-04T06:42:15.940Z,40.49
2022-09-04T06:47:43.730Z,39.72
2022-09-04T06:52:56.257Z,38.69
2022-09-04T06:58:15.336Z,39.03
2022-09-04T07:03:53.777Z,39.12
2022-09-04T07:09:19.930Z,38.71
2022-09-04T07:15:08.511Z,37.87
2022-09-04T07:20:27.059Z,37.01
2022-09-04T07:25:29.989Z,37.15
2022-09-04T07:31:22.475Z,36.18
2022-09-04T07:36:31.641Z,35.40
2022-09-04T07:41:54.504Z,35.41
2022-09-04T07:47:14.779Z,35.68
2022-09-04T07:52:23.458Z,36.01
2022-09-04T07:57:42.200Z,36.42
2022-09-04T08:02:45.099Z,36.97
2022-09-04T08:08:10.753Z,36.17
2022-09-04T08:13:34.530Z,36.76
2022-09-04T08:19:08.772Z,35.52
2022-09-04T08:24:37.373Z,35.51
2022-09-04T08:30:09.184Z,35.74
2022-09-04T08:35:27.326Z,36.07
2022-09-04T08:40:52.290Z,36.36
2022-09-04T08:46:36.037Z,37.89
2022-09-04T08:51:57.847Z,39.98
2022-09-04T08:57:19.802Z,41.51
2022-09-04T09:02:44.888Z,42.22
2022-09-04T09:07:54.279Z,42.74
2022-09-04T09:13:15.972Z,42.77
2022-09-04T09:18:40.754Z,43.37
2022-09-04T09:24:01.808Z,42.73
2022-09-04T09:29:41.964Z,42.56
2022-09-04T09:35:02.051Z,41.98
2022-09-04T09:40:26.770Z,40.45
2022-09-04T09:45:57.501Z,40.45
2022-09-04T09:51:44.772Z,39.78
2022-09-04T09:56:53.790Z,39.05
2022-09-04T10:02:18.158Z,38.99
2022-09-04T10:07:40.185Z,39.08
2022-09-04T10:13:20.812Z,38.31
2022-09-04T10:18:36.264Z,38.45
2022-09-04T10:23:58.933Z,38.04
2022-09-04T10:29:20.677Z,38.44
2022-09-04T10:34:30.446Z,38.38
2022-09-04T10:40:11.871Z,37.84
2022-09-04T10:45:33.316Z,37.63
2022-09-04T10:50:59.036Z,37.32
2022-09-04T10:56:09.407Z,37.91
2022-09-04T11:01:35.363Z,37.20
2022-09-04T11:07:28.820Z,36.32
2022-09-04T11:12:51.071Z,36.68
2022-09-04T11:18:03.945Z,36.83
2022-09-04T11:23:23.533Z,37.40
2022-09-04T11:28:46.914Z,37.37
2022-09-04T11:34:21.257Z,37.79
2022-09-04T11:39:39.148Z,37.86
2022-09-04T11:45:00.772Z,37.63
2022-09-04T11:50:22.197Z,38.29
2022-09-04T11:55:54.590Z,39.17
2022-09-04T12:01:19.102Z,39.06
2022-09-04T12:06:39.019Z,39.01
2022-09-04T12:12:01.262Z,38.41
2022-09-04T12:17:29.084Z,37.43
2022-09-04T12:23:09.537Z,37.21
2022-09-04T12:28:16.022Z,37.15
2022-09-04T12:33:49.850Z,36.83
2022-09-04T12:39:11.189Z,36.12
2022-09-04T12:44:34.904Z,36.29
2022-09-04T12:50:01.548Z,37.31
2022-09-04T12:55:33.534Z,36.74
2022-09-04T13:00:52.905Z,36.05
2022-09-04T13:06:31.565Z,37.12
2022-09-04T13:11:43.682Z,35.70
2022-09-04T13:17:01.949Z,35.54
2022-09-04T13:22:39.671Z,34.67
2022-09-04T13:28:16.911Z,35.34
2022-09-04T13:33:42.408Z,34.80
2022-09-04T13:39:06.734Z,35.98
2022-09-04T13:44:28.153Z,35.43
2022-09-04T13:49:48.173Z,35.44
2022-09-04T13:55:00.484Z,35.43
2022-09-04T14:00:08.029Z,35.72
2022-09-04T14:05:22.165Z,35.21
2022-09-04T14:11:01.729Z,35.02
2022-09-04T14:16:11.886Z,35.89
2022-09-04T14:21:43.512Z,34.69
2022-09-04T14:27:04.573Z,33.53
2022-09-04T14:32:28.461Z,32.90
2022-09-04T14:37:42.880Z,32.92
2022-09-04T14:43:00.324Z,34.07
2022-09-04T14:48:07.496Z,33.91
2022-09-04T14:53:11.098Z,33.57
2022-09-04T14:58:30.233Z,33.31
2022-09-04T15:03:49.277Z,33.83
2022-09-04T15:08:53.932Z,35.31
2022-09-04T15:14:33.102Z,35.63
2022-09-04T15:19:41.074Z,35.39
2022-09-04T15:24:44.048Z,34.82
2022-09-04T15:30:18.794Z,35.88
2022-09-04T15:35:28.389Z,36.39
2022-09-04T15:40:59.620Z,36.98
2022-09-04T15:46:21.038Z,37.71
2022-09-04T15:51:41.638Z,37.92
2022-09-04T15:56:54.108Z,37.66
2022-09-04T16:02:11.931Z,37.85
2022-09-04T16:07:33.099Z,37.82
2022-09-04T16:12:53.305Z,38.52
2022-09-04T16:17:59.855Z,39.35
2022-09-04T16:23:08.584Z,39.48
2022-09-04T16:28:20.324Z,39.98
2022-09-04T16:33:38.243Z,40.35
2022-09-04T16:38:50.563Z,40.57
2022-09-04T16:44:07.462Z,41.19
2022-09-04T16:49:22.076Z,41.78
2022-09-04T16:54:49.253Z,42.07
2022-09-04T17:00:22.646Z,42.75
2022-09-04T17:05:39.411Z,43.47
2022-09-04T17:11:04.382Z,44.04
2022-09-04T17:16:19.866Z,44.90
2022-09-04T17:27:32.393Z,45.62
2022-09-04T17:29:09.737Z,46.21
2022-09-04T17:40:32.454Z,47.12
2022-09-04T17:40:46.823Z,48.23
2022-09-04T17:44:25.499Z,49.07
2022-09-04T17:49:34.708Z,50.11
2022-09-04T17:54:48.896Z,50.78
2022-09-04T17:59:57.165Z,51.46
2022-09-04T18:05:15.023Z,52.43
2022-09-04T18:10:36.030Z,53.05
2022-09-04T18:16:17.018Z,53.45
2022-09-04T18:21:29.235Z,54.43
2022-09-04T18:26:45.900Z,55.77
2022-09-04T18:37:06.420Z,57.21
2022-09-04T18:37:47.441Z,58.04
2022-09-04T18:46:41.266Z,59.27
2022-09-04T18:51:06.965Z,60.47
2022-09-04T18:54:20.508Z,61.07
2022-09-04T18:59:29.955Z,61.57
2022-09-04T19:04:41.685Z,62.81
2022-09-04T19:10:06.405Z,64.28
2022-09-04T19:15:36.298Z,64.58
2022-09-04T19:20:48.347Z,65.37
2022-09-04T19:25:55.210Z,65.98
2022-09-04T19:31:06.082Z,66.03
2022-09-04T19:36:37.931Z,67.21
2022-09-04T19:46:02.354Z,67.22
2022-09-04T19:47:27.242Z,67.83
2022-09-04T19:53:30.150Z,68.09
2022-09-04T19:58:09.644Z,68.30
2022-09-04T20:03:29.482Z,68.88
2022-09-04T20:08:42.445Z,69.06
2022-09-04T20:13:49.958Z,69.58
2022-09-04T20:19:12.057Z,69.69
2022-09-04T20:24:32.670Z,70.02
2022-09-04T20:29:54.751Z,70.51
2022-09-04T20:35:33.290Z,71.07
2022-09-04T20:40:59.508Z,71.85
2022-09-04T20:47:44.508Z,72.14
2022-09-04T20:52:52.787Z,72.55
2022-09-04T20:59:26.791Z,73.02
2022-09-04T21:03:28.042Z,73.28
2022-09-04T21:08:32.029Z,73.68
2022-09-04T21:13:51.737Z,74.05
2022-09-04T21:19:27.644Z,74.07
2022-09-04T21:24:54.371Z,75.73
2022-09-04T21:30:17.163Z,76.25
2022-09-04T21:35:32.333Z,76.91
2022-09-04T21:40:49.966Z,77.01
2022-09-04T21:46:18.517Z,77.62
2022-09-04T21:51:28.652Z,78.21
2022-09-04T22:02:29.946Z,78.95
2022-09-04T22:02:59.442Z,79.44
2022-09-04T22:13:32.066Z,80.09
2022-09-04T22:13:49.308Z,81.18
2022-09-04T22:19:01.952Z,81.50
2022-09-04T22:24:41.281Z,82.20
2022-09-04T22:29:58.448Z,83.21
2022-09-04T22:35:35.914Z,83.61
2022-09-04T22:40:56.203Z,83.72
2022-09-04T22:46:03.364Z,84.33
2022-09-04T22:51:25.319Z,85.87
2022-09-04T22:56:28.320Z,86.38
2022-09-04T23:01:31.735Z,87.25
2022-09-04T23:10:43.497Z,87.23
2022-09-04T23:14:02.223Z,87.39
2022-09-04T23:21:23.603Z,88.39
2022-09-04T23:26:46.605Z,88.42
2022-09-04T23:29:44.485Z,87.79
2022-09-04T23:34:54.666Z,88.93
2022-09-04T23:40:38.007Z,89.65
2022-09-04T23:46:08.293Z,89.90
2022-09-04T23:51:56.267Z,90.46
2022-09-04T23:57:26.195Z,90.89
